Time;durP1;ratioP1;P1;durP2;ratioP2;P2;SDS_P1;SDS_P2;PMS_P1;PMS_P2;Temp;Humidity;BMP_temperature;BMP_pressure;BME280_temperature;BME280_humidity;BME280_pressure;Samples;Min_cycle;Max_cycle;Signal;HPM_P1;HPM_P2
2022/12/16 00:00:10;;;;;;;34.13;21.30;;;-2.90;99.90;;;;;;5009178;28;20529;-73
2022/12/16 00:02:36;;;;;;;37.00;21.48;;;-2.90;99.90;;;;;;5008873;28;20232;-72
2022/12/16 00:05:02;;;;;;;35.13;20.77;;;-2.90;99.90;;;;;;5009284;28;20681;-71
2022/12/16 00:07:28;;;;;;;40.80;22.63;;;-2.90;99.90;;;;;;5009026;28;20277;-72
2022/12/16 00:09:54;;;;;;;35.43;20.90;;;-3.00;99.90;;;;;;5009264;28;20285;-72
2022/12/16 00:12:20;;;;;;;42.97;24.20;;;-3.00;99.90;;;;;;4996177;28;21149;-72
2022/12/16 00:14:45;;;;;;;34.33;20.63;;;-3.00;99.90;;;;;;5023117;28;20197;-72
2022/12/16 00:17:11;;;;;;;42.07;23.47;;;-3.00;99.90;;;;;;5021412;28;20198;-71
2022/12/16 00:19:37;;;;;;;38.50;23.40;;;-3.00;99.90;;;;;;5020735;28;20170;-72
2022/12/16 00:22:02;;;;;;;37.13;21.60;;;-3.00;99.90;;;;;;5020270;28;20178;-71
2022/12/16 00:24:30;;;;;;;38.17;22.63;;;-3.00;99.90;;;;;;5019682;28;20182;-72
2022/12/16 00:26:56;;;;;;;45.22;24.48;;;-3.00;99.90;;;;;;5019379;28;20248;-73
2022/12/16 00:29:22;;;;;;;42.13;22.70;;;-3.00;99.90;;;;;;5009993;28;20170;-72
2022/12/16 00:31:47;;;;;;;37.37;21.37;;;-3.00;99.90;;;;;;5009812;28;20491;-73
2022/12/16 00:34:14;;;;;;;46.70;25.50;;;-3.00;99.90;;;;;;5011284;28;20186;-73
2022/12/16 00:36:40;;;;;;;39.88;24.33;;;-3.00;99.90;;;;;;5009477;28;20209;-73
2022/12/16 00:39:06;;;;;;;43.15;23.80;;;-3.00;99.90;;;;;;5010608;28;20190;-72
2022/12/16 00:41:32;;;;;;;39.73;22.00;;;-3.00;99.90;;;;;;5010725;28;20703;-72
2022/12/16 00:43:57;;;;;;;43.33;23.37;;;-3.00;99.90;;;;;;5010096;28;20201;-73
2022/12/16 00:46:23;;;;;;;32.03;20.40;;;-3.00;99.90;;;;;;5008879;28;20638;-73
2022/12/16 00:48:49;;;;;;;39.77;22.43;;;-3.00;99.90;;;;;;5008783;28;20174;-73
2022/12/16 00:51:14;;;;;;;41.33;20.43;;;-3.00;99.90;;;;;;5010163;28;20178;-72
2022/12/16 00:53:40;;;;;;;42.53;23.37;;;-3.00;99.90;;;;;;4992372;28;20261;-71
2022/12/16 00:56:13;;;;;;;42.30;24.27;;;-3.10;99.90;;;;;;4992394;28;20185;-72
2022/12/16 00:58:39;;;;;;;30.55;21.08;;;-3.10;99.90;;;;;;5009855;28;20170;-73
2022/12/16 01:01:07;;;;;;;32.63;21.60;;;-3.10;99.90;;;;;;5009613;28;20174;-73
2022/12/16 01:03:33;;;;;;;40.80;22.98;;;-3.20;99.90;;;;;;5009804;28;20226;-72
2022/12/16 01:05:59;;;;;;;34.00;21.30;;;-3.20;99.90;;;;;;5009647;28;20167;-72
2022/12/16 01:08:25;;;;;;;34.87;22.97;;;-3.20;99.90;;;;;;5008609;28;20190;-72
2022/12/16 01:10:56;;;;;;;38.28;22.65;;;-3.20;99.90;;;;;;5008384;28;21020;-71
2022/12/16 01:13:23;;;;;;;33.83;20.67;;;-3.20;99.90;;;;;;5009797;28;20185;-74
2022/12/16 01:15:49;;;;;;;32.58;21.35;;;-3.20;99.90;;;;;;5008211;28;20175;-74
2022/12/16 01:18:16;;;;;;;34.30;22.17;;;-3.30;99.90;;;;;;5008406;28;20199;-73
2022/12/16 01:20:41;;;;;;;35.13;20.60;;;-3.30;99.90;;;;;;5008207;28;20205;-72
2022/12/16 01:23:08;;;;;;;34.80;22.13;;;-3.30;99.90;;;;;;5008462;28;20284;-72
2022/12/16 01:25:34;;;;;;;40.15;22.00;;;-3.30;99.90;;;;;;5009416;28;20202;-72
2022/12/16 01:27:59;;;;;;;32.40;21.53;;;-3.30;99.90;;;;;;5009502;28;20195;-72
2022/12/16 01:30:25;;;;;;;33.20;21.40;;;-3.40;99.90;;;;;;5009322;28;21139;-72
2022/12/16 01:32:51;;;;;;;34.87;19.23;;;-3.40;99.90;;;;;;5009484;28;20533;-73
2022/12/16 01:35:17;;;;;;;33.30;20.50;;;-3.50;99.90;;;;;;5008347;28;20983;-73
2022/12/16 01:37:42;;;;;;;28.63;17.35;;;-3.50;99.90;;;;;;5009174;28;20210;-74
2022/12/16 01:40:17;;;;;;;39.13;21.40;;;-3.50;99.90;;;;;;5011751;28;20182;-74
2022/12/16 01:42:44;;;;;;;43.17;20.35;;;-3.60;99.90;;;;;;5012585;28;20555;-74
2022/12/16 01:45:28;;;;;;;33.35;20.17;;;-3.70;99.90;;;;;;5011567;28;20175;-72
2022/12/16 01:47:56;;;;;;;43.95;21.10;;;-3.70;99.90;;;;;;5012537;28;20194;-72
2022/12/16 01:50:22;;;;;;;35.50;21.17;;;-3.80;99.90;;;;;;5012770;28;20875;-72
2022/12/16 01:52:52;;;;;;;39.08;20.55;;;-3.80;99.90;;;;;;5012426;28;20301;-72
2022/12/16 01:55:23;;;;;;;41.97;20.00;;;-3.80;99.90;;;;;;5011783;28;20174;-73
2022/12/16 01:57:58;;;;;;;70.45;21.10;;;-3.80;99.90;;;;;;5011381;28;20194;-72
2022/12/16 02:00:24;;;;;;;37.30;20.67;;;-3.80;99.90;;;;;;5011316;28;20629;-72
2022/12/16 02:02:51;;;;;;;37.80;19.90;;;-3.80;99.90;;;;;;4994561;28;20198;-72
2022/12/16 02:05:20;;;;;;;38.15;19.83;;;-3.70;99.90;;;;;;5011364;28;20554;-73
2022/12/16 02:08:04;;;;;;;46.60;20.30;;;-3.70;99.90;;;;;;5010773;28;20202;-73
2022/12/16 02:10:42;;;;;;;46.92;21.95;;;-3.70;99.90;;;;;;5011219;28;20261;-73
2022/12/16 02:13:25;;;;;;;42.88;18.63;;;-3.60;99.90;;;;;;5010849;28;20174;-73
2022/12/16 02:16:23;;;;;;;38.22;18.65;;;-3.50;99.90;;;;;;4994700;28;20171;-73
2022/12/16 02:19:07;;;;;;;38.65;18.77;;;-3.50;99.90;;;;;;5010900;28;20225;-73
2022/12/16 02:21:51;;;;;;;44.60;19.38;;;-3.50;99.90;;;;;;5012252;28;20248;-73
2022/12/16 02:24:46;;;;;;;75.38;22.00;;;-3.40;99.90;;;;;;5010663;28;20212;-73
2022/12/16 02:27:12;;;;;;;31.98;18.50;;;-3.40;99.90;;;;;;5010817;28;20232;-73
2022/12/16 02:30:15;;;;;;;36.87;20.00;;;-3.40;99.90;;;;;;5010632;28;20256;-73
2022/12/16 02:32:52;;;;;;;41.53;20.65;;;-3.40;99.90;;;;;;5010725;28;20220;-73
2022/12/16 02:35:29;;;;;;;54.72;25.20;;;-3.40;99.90;;;;;;5010506;28;20566;-73
2022/12/16 02:38:13;;;;;;;51.83;25.25;;;-3.30;99.90;;;;;;5010380;28;20205;-73
2022/12/16 02:40:54;;;;;;;56.05;22.17;;;-3.40;99.90;;;;;;5010200;28;20185;-73
2022/12/16 02:43:47;;;;;;;37.90;22.58;;;-3.40;99.90;;;;;;4994163;28;20563;-73
2022/12/16 02:46:13;;;;;;;36.80;22.73;;;-3.40;99.90;;;;;;5011421;28;20167;-73
2022/12/16 02:48:39;;;;;;;58.95;28.52;;;-3.40;99.90;;;;;;5009960;28;20174;-73
2022/12/16 02:51:05;;;;;;;44.93;24.47;;;-3.40;99.90;;;;;;5010010;28;20175;-73
2022/12/16 02:53:35;;;;;;;48.10;24.20;;;-3.40;99.90;;;;;;5010450;28;20224;-73
2022/12/16 02:56:35;;;;;;;39.58;22.13;;;-3.40;99.90;;;;;;5010277;28;20181;-74
2022/12/16 02:59:23;;;;;;;39.88;20.65;;;-3.40;99.90;;;;;;5010087;28;20182;-73
2022/12/16 03:02:28;;;;;;;43.45;22.85;;;-3.40;99.90;;;;;;5009917;28;20185;-74
2022/12/16 03:05:03;;;;;;;38.08;21.40;;;-3.40;99.90;;;;;;5010014;28;20181;-74
2022/12/16 03:07:31;;;;;;;39.15;21.23;;;-3.40;99.90;;;;;;5009734;28;20222;-73
2022/12/16 03:09:59;;;;;;;27.13;18.40;;;-3.30;99.90;;;;;;5009946;28;20294;-73
2022/12/16 03:12:26;;;;;;;28.35;18.63;;;-3.30;99.90;;;;;;5009721;28;20186;-73
2022/12/16 03:14:53;;;;;;;36.15;21.48;;;-3.30;99.90;;;;;;5009877;28;20191;-74
2022/12/16 03:17:23;;;;;;;38.03;22.23;;;-3.20;99.90;;;;;;5009660;28;20205;-73
2022/12/16 03:19:56;;;;;;;41.40;21.73;;;-3.20;99.90;;;;;;5011199;28;20390;-73
2022/12/16 03:22:27;;;;;;;46.25;23.40;;;-3.20;99.90;;;;;;5009446;28;20209;-73
2022/12/16 03:24:54;;;;;;;56.38;24.83;;;-3.20;99.90;;;;;;5009810;28;20206;-73
2022/12/16 03:27:39;;;;;;;36.15;20.33;;;-3.20;99.90;;;;;;5009450;28;20201;-73
2022/12/16 03:30:08;;;;;;;34.88;17.80;;;-3.30;99.90;;;;;;5009580;28;20209;-73
2022/12/16 03:32:36;;;;;;;34.53;19.77;;;-3.30;99.90;;;;;;5010658;28;20174;-71
2022/12/16 03:35:18;;;;;;;45.05;24.13;;;-3.30;99.90;;;;;;5009562;28;20174;-71
2022/12/16 03:37:47;;;;;;;36.03;19.60;;;-3.40;99.90;;;;;;5010454;28;20201;-71
2022/12/16 03:40:13;;;;;;;47.20;23.73;;;-3.30;99.90;;;;;;5010809;28;20574;-71
2022/12/16 03:42:41;;;;;;;44.72;22.33;;;-3.40;99.90;;;;;;5009389;28;20732;-71
2022/12/16 03:45:12;;;;;;;53.40;22.77;;;-3.40;99.90;;;;;;5009164;28;20202;-73
2022/12/16 03:47:38;;;;;;;42.85;24.20;;;-3.40;99.90;;;;;;4993153;28;20191;-73
2022/12/16 03:50:05;;;;;;;36.90;19.77;;;-3.30;99.90;;;;;;5009145;28;20174;-73
2022/12/16 03:52:31;;;;;;;50.28;25.60;;;-3.40;99.90;;;;;;5009367;28;20182;-73
2022/12/16 03:54:57;;;;;;;40.35;22.90;;;-3.50;99.90;;;;;;5009081;28;20232;-74
2022/12/16 03:57:22;;;;;;;39.50;20.77;;;-3.50;99.90;;;;;;5009200;28;20190;-74
2022/12/16 03:59:48;;;;;;;36.13;20.13;;;-3.50;99.90;;;;;;5008741;28;20594;-74
2022/12/16 04:02:14;;;;;;;37.80;20.80;;;-3.50;99.90;;;;;;5008517;28;20184;-74
2022/12/16 04:04:39;;;;;;;40.57;21.83;;;-3.40;99.90;;;;;;5008989;28;20198;-73
2022/12/16 04:07:20;;;;;;;40.80;21.10;;;-3.50;99.90;;;;;;5008987;28;20224;-73
2022/12/16 04:09:49;;;;;;;33.35;19.52;;;-3.40;99.90;;;;;;5008787;28;20768;-73
2022/12/16 04:29:19;;;;;;;32.40;19.17;;;-3.40;99.90;;;;;;5010218;28;20166;-75
2022/12/16 04:31:44;;;;;;;30.10;16.87;;;-3.40;99.90;;;;;;5008559;28;20522;-75
2022/12/16 04:34:25;;;;;;;34.40;18.77;;;-3.40;99.90;;;;;;5008792;28;20178;-75
